createdAt,value
2022-08-02T00:01:36.991Z,19.00
2022-08-02T00:06:43.448Z,18.87
2022-08-02T00:11:49.231Z,18.78
2022-08-02T00:16:54.864Z,18.67
2022-08-02T00:22:00.848Z,18.69
2022-08-02T00:27:09.530Z,18.70
2022-08-02T00:32:15.472Z,18.63
2022-08-02T00:37:21.293Z,18.60
2022-08-02T00:42:27.114Z,18.61
2022-08-02T00:47:33.645Z,18.62
2022-08-02T00:52:39.660Z,18.60
2022-08-02T00:57:45.370Z,18.55
2022-08-02T01:02:51.314Z,18.50
2022-08-02T01:07:58.011Z,18.47
2022-08-02T01:13:03.902Z,18.46
2022-08-02T01:18:23.826Z,18.46
2022-08-02T01:23:45.456Z,18.36
2022-08-02T01:28:58.524Z,18.29
2022-08-02T01:34:08.015Z,18.25
2022-08-02T01:39:27.565Z,18.24
2022-08-02T01:44:41.256Z,18.29
2022-08-02T01:49:51.880Z,18.34
2022-08-02T01:55:01.636Z,18.34
2022-08-02T02:00:11.482Z,18.39
2022-08-02T02:05:19.848Z,18.34
2022-08-02T02:10:30.410Z,18.33
2022-08-02T02:15:40.917Z,18.35
2022-08-02T02:20:48.353Z,18.32
2022-08-02T02:25:55.751Z,18.29
2022-08-02T02:31:06.493Z,18.23
2022-08-02T02:36:14.118Z,18.22
2022-08-02T02:41:21.411Z,18.28
2022-08-02T02:46:30.120Z,18.31
2022-08-02T02:51:37.092Z,18.31
2022-08-02T02:56:44.616Z,18.16
2022-08-02T03:01:57.031Z,17.98
2022-08-02T03:07:05.869Z,17.86
2022-08-02T03:12:12.724Z,17.70
2022-08-02T03:17:19.089Z,17.58
2022-08-02T03:22:24.850Z,17.57
2022-08-02T03:27:30.859Z,17.56
2022-08-02T03:32:38.412Z,17.55
2022-08-02T03:37:45.446Z,17.55
2022-08-02T03:42:52.309Z,17.55
2022-08-02T03:47:59.083Z,17.61
2022-08-02T03:53:06.388Z,17.65
2022-08-02T03:58:26.922Z,17.70
2022-08-02T04:03:32.852Z,17.82
2022-08-02T04:08:39.128Z,17.94
2022-08-02T04:13:45.404Z,18.05
2022-08-02T04:19:01.081Z,18.12
2022-08-02T04:24:11.121Z,18.33
2022-08-02T04:29:19.153Z,19.32
2022-08-02T04:34:25.584Z,19.61
2022-08-02T04:39:31.862Z,19.83
2022-08-02T04:44:38.449Z,20.09
2022-08-02T04:49:44.402Z,20.48
2022-08-02T04:54:51.249Z,20.93
2022-08-02T04:59:57.375Z,22.39
2022-08-02T05:05:09.735Z,25.47
2022-08-02T05:10:16.889Z,27.56
2022-08-02T05:15:22.725Z,28.25
2022-08-02T05:20:28.683Z,29.83
2022-08-02T05:25:34.794Z,31.52
2022-08-02T05:30:41.084Z,31.62
2022-08-02T05:35:47.165Z,31.93
2022-08-02T05:40:54.377Z,32.79
2022-08-02T05:46:01.180Z,35.13
2022-08-02T05:51:12.982Z,36.54
2022-08-02T05:56:24.879Z,37.92
2022-08-02T06:01:40.837Z,38.86
2022-08-02T06:06:49.532Z,39.72
2022-08-02T06:12:01.475Z,40.57
2022-08-02T06:17:09.291Z,39.85
2022-08-02T06:22:33.962Z,38.79
2022-08-02T06:27:43.490Z,39.37
2022-08-02T06:32:52.649Z,40.43
2022-08-02T06:38:02.032Z,39.71
2022-08-02T06:43:18.309Z,39.36
2022-08-02T06:48:24.278Z,39.67
2022-08-02T06:53:30.422Z,41.03
2022-08-02T06:58:34.705Z,41.38
2022-08-02T07:03:41.521Z,41.99
2022-08-02T07:09:04.952Z,42.62
2022-08-02T07:14:13.340Z,42.16
2022-08-02T07:19:19.237Z,42.20
2022-08-02T07:24:24.815Z,42.62
2022-08-02T07:29:29.065Z,43.10
2022-08-02T07:34:39.336Z,42.81
2022-08-02T07:39:47.513Z,42.53
2022-08-02T07:44:54.923Z,42.93
2022-08-02T07:50:00.918Z,43.45
2022-08-02T07:55:08.154Z,43.29
2022-08-02T08:00:17.444Z,43.48
2022-08-02T08:05:23.861Z,43.85
2022-08-02T08:10:30.072Z,44.22
2022-08-02T08:15:36.084Z,44.89
2022-08-02T08:20:42.762Z,44.92
2022-08-02T08:25:48.670Z,44.84
2022-08-02T08:30:54.663Z,44.47
2022-08-02T08:36:02.461Z,44.62
2022-08-02T08:41:08.567Z,44.61
2022-08-02T08:46:25.061Z,44.36
2022-08-02T08:51:36.705Z,44.50
2022-08-02T08:56:44.181Z,44.49
2022-08-02T09:01:52.090Z,43.85
2022-08-02T09:06:58.354Z,43.43
2022-08-02T09:12:16.766Z,43.10
2022-08-02T09:17:22.711Z,41.95
2022-08-02T09:22:28.559Z,41.41
2022-08-02T09:27:37.515Z,41.86
2022-08-02T09:32:50.021Z,42.20
2022-08-02T09:38:10.725Z,42.46
2022-08-02T09:43:17.755Z,42.48
2022-08-02T09:48:23.454Z,42.44
2022-08-02T09:53:30.879Z,42.07
2022-08-02T09:58:40.044Z,41.53
2022-08-02T10:04:00.743Z,41.64
2022-08-02T10:09:08.286Z,41.31
2022-08-02T10:14:14.273Z,40.61
2022-08-02T10:19:59.636Z,40.26
2022-08-02T10:24:48.203Z,40.14
2022-08-02T10:29:58.010Z,38.66
2022-08-02T10:35:21.759Z,38.07
2022-08-02T10:40:47.193Z,38.48
2022-08-02T10:45:53.852Z,39.03
2022-08-02T10:51:04.503Z,39.25
2022-08-02T10:56:10.372Z,39.39
2022-08-02T11:01:39.057Z,39.47
2022-08-02T11:07:10.802Z,39.36
2022-08-02T11:12:18.623Z,37.86
2022-08-02T11:17:23.003Z,36.77
2022-08-02T11:22:28.943Z,36.60
2022-08-02T11:27:35.381Z,36.91
2022-08-02T11:32:41.541Z,37.20
2022-08-02T11:37:47.358Z,37.52
2022-08-02T11:42:53.765Z,37.60
2022-08-02T11:48:00.128Z,37.37
2022-08-02T11:53:14.744Z,36.68
2022-08-02T11:58:20.742Z,35.82
2022-08-02T12:03:27.021Z,34.27
2022-08-02T12:08:33.159Z,33.15
2022-08-02T12:13:56.820Z,33.14
2022-08-02T12:19:19.470Z,33.52
2022-08-02T12:24:31.716Z,33.73
2022-08-02T12:29:58.004Z,33.89
2022-08-02T12:35:11.900Z,33.60
2022-08-02T12:40:25.715Z,32.70
2022-08-02T12:45:48.563Z,31.90
2022-08-02T12:50:55.059Z,32.01
2022-08-02T12:56:03.943Z,32.52
2022-08-02T13:01:11.259Z,32.73
2022-08-02T13:06:43.045Z,32.49
2022-08-02T13:11:45.119Z,32.73
2022-08-02T13:16:51.485Z,32.36
2022-08-02T13:22:02.034Z,32.91
2022-08-02T13:27:09.969Z,33.26
2022-08-02T13:32:16.471Z,33.12
2022-08-02T13:37:23.224Z,32.40
2022-08-02T13:42:29.206Z,32.28
2022-08-02T13:47:36.209Z,32.41
2022-08-02T13:53:01.382Z,32.36
2022-08-02T13:58:07.558Z,32.15
2022-08-02T14:03:13.445Z,31.51
2022-08-02T14:08:22.545Z,31.18
2022-08-02T14:13:28.522Z,31.03
2022-08-02T14:18:42.333Z,30.72
2022-08-02T14:23:49.860Z,30.23
2022-08-02T14:28:56.833Z,29.63
2022-08-02T14:34:03.468Z,29.18
2022-08-02T14:39:09.878Z,29.17
2022-08-02T14:44:15.871Z,29.31
2022-08-02T14:49:25.901Z,29.41
2022-08-02T14:54:33.979Z,29.54
2022-08-02T14:59:42.593Z,29.48
2022-08-02T15:04:48.722Z,29.36
2022-08-02T15:09:54.594Z,29.40
2022-08-02T15:15:00.529Z,29.47
2022-08-02T15:20:25.404Z,29.45
2022-08-02T15:25:32.555Z,29.34
2022-08-02T15:30:39.516Z,28.99
2022-08-02T15:35:45.383Z,28.72
2022-08-02T15:40:51.549Z,28.37
2022-08-02T15:45:57.487Z,28.10
2022-08-02T15:51:03.890Z,27.81
2022-08-02T15:56:13.026Z,27.60
2022-08-02T16:01:19.782Z,27.48
2022-08-02T16:06:49.017Z,27.48
2022-08-02T16:11:55.134Z,27.49
2022-08-02T16:17:01.203Z,27.53
2022-08-02T16:22:07.031Z,27.52
2022-08-02T16:27:17.443Z,27.34
2022-08-02T16:32:23.396Z,27.06
2022-08-02T16:37:50.412Z,26.75
2022-08-02T16:42:55.496Z,26.44
2022-08-02T16:48:05.259Z,26.26
2022-08-02T16:53:17.208Z,26.08
2022-08-02T16:58:37.936Z,25.95
2022-08-02T17:03:56.599Z,25.86
2022-08-02T17:09:04.030Z,25.72
2022-08-02T17:14:10.061Z,25.60
2022-08-02T17:19:16.162Z,25.44
2022-08-02T17:24:22.032Z,25.28
2022-08-02T17:29:32.812Z,25.12
2022-08-02T17:34:39.079Z,24.91
2022-08-02T17:39:51.592Z,24.73
2022-08-02T17:45:00.929Z,24.52
2022-08-02T17:50:13.257Z,24.31
2022-08-02T17:55:19.457Z,24.07
2022-08-02T18:00:30.832Z,23.81
2022-08-02T18:11:03.985Z,23.28
2022-08-02T18:16:21.337Z,22.99
2022-08-02T18:21:27.747Z,22.70
2022-08-02T18:26:35.774Z,22.45
2022-08-02T18:31:50.894Z,22.22
2022-08-02T18:36:57.603Z,22.05
2022-08-02T18:42:03.910Z,21.85
2022-08-02T18:47:09.917Z,21.59
2022-08-02T18:52:16.844Z,21.36
2022-08-02T18:58:02.453Z,21.15
2022-08-02T19:03:07.756Z,20.95
2022-08-02T19:08:15.169Z,20.85
2022-08-02T19:13:21.250Z,20.71
2022-08-02T19:18:30.207Z,20.56
2022-08-02T19:23:36.559Z,20.36
2022-08-02T19:29:01.157Z,20.25
2022-08-02T19:34:16.280Z,20.12
2022-08-02T19:39:22.475Z,19.99
2022-08-02T19:44:33.358Z,19.88
2022-08-02T19:49:40.858Z,19.73
2022-08-02T19:54:54.421Z,19.61
2022-08-02T20:00:03.994Z,19.47
2022-08-02T20:05:24.018Z,19.33
2022-08-02T20:10:33.524Z,19.21
2022-08-02T20:15:56.391Z,19.13
2022-08-02T20:21:03.667Z,19.13
2022-08-02T20:26:10.194Z,19.06
2022-08-02T20:31:16.298Z,18.95
2022-08-02T20:36:22.190Z,18.90
2022-08-02T20:41:36.936Z,18.81
2022-08-02T20:46:52.243Z,18.66
2022-08-02T20:51:58.235Z,18.56
2022-08-02T20:57:04.430Z,18.52
2022-08-02T21:02:13.023Z,18.52
2022-08-02T21:07:22.412Z,18.42
2022-08-02T21:12:30.171Z,18.33
2022-08-02T21:17:42.612Z,18.28
2022-08-02T21:22:50.782Z,18.27
2022-08-02T21:27:56.957Z,18.17
2022-08-02T21:33:02.940Z,18.08
2022-08-02T21:38:09.935Z,18.09
2022-08-02T21:43:39.061Z,18.09
2022-08-02T21:48:45.182Z,18.05
2022-08-02T21:54:18.886Z,18.02
2022-08-02T21:59:17.508Z,17.93
2022-08-02T22:04:23.862Z,17.78
2022-08-02T22:14:56.868Z,17.56
2022-08-02T22:20:03.125Z,17.50
2022-08-02T22:25:27.358Z,17.47
2022-08-02T22:30:36.116Z,17.42
2022-08-02T22:35:42.167Z,17.44
2022-08-02T22:40:49.674Z,17.46
2022-08-02T22:45:55.578Z,17.48
2022-08-02T22:51:02.310Z,17.45
2022-08-02T22:56:08.537Z,17.48
2022-08-02T22:58:59.554Z,23.57
2022-08-02T22:59:04.204Z,17.64
2022-08-02T23:01:14.874Z,17.47
2022-08-02T23:06:22.663Z,17.41
2022-08-02T23:11:29.093Z,17.36
2022-08-02T23:16:53.835Z,17.32
2022-08-02T23:22:02.465Z,17.23
2022-08-02T23:27:09.555Z,17.11
2022-08-02T23:32:15.957Z,16.97
2022-08-02T23:37:22.722Z,16.90
2022-08-02T23:42:28.822Z,16.86
2022-08-02T23:47:34.608Z,16.77
2022-08-02T23:52:40.454Z,16.71
2022-08-02T23:57:46.659Z,16.68
